sensor_id;sensor_type;location;lat;lon;timestamp;P1;durP1;ratioP1;P2;durP2;ratioP2
18194;SDS011;9223;50.988;3.162;2024-03-02T00:03:34;1.02;;;0.40;;
18194;SDS011;9223;50.988;3.162;2024-03-02T00:09:37;0.47;;;0.30;;
18194;SDS011;9223;50.988;3.162;2024-03-02T00:15:42;0.45;;;0.40;;
18194;SDS011;9223;50.988;3.162;2024-03-02T00:21:48;2.15;;;0.50;;
18194;SDS011;9223;50.988;3.162;2024-03-02T00:27:52;1.10;;;0.60;;
18194;SDS011;9223;50.988;3.162;2024-03-02T00:33:55;0.40;;;0.32;;
18194;SDS011;9223;50.988;3.162;2024-03-02T00:40:02;0.40;;;0.35;;
18194;SDS011;9223;50.988;3.162;2024-03-02T00:46:06;0.85;;;0.50;;
18194;SDS011;9223;50.988;3.162;2024-03-02T00:52:10;0.43;;;0.32;;
18194;SDS011;9223;50.988;3.162;2024-03-02T00:58:15;0.43;;;0.43;;
18194;SDS011;9223;50.988;3.162;2024-03-02T01:04:18;1.15;;;0.50;;
18194;SDS011;9223;50.988;3.162;2024-03-02T01:10:22;0.70;;;0.40;;
18194;SDS011;9223;50.988;3.162;2024-03-02T01:16:28;1.23;;;0.57;;
18194;SDS011;9223;50.988;3.162;2024-03-02T01:22:32;0.30;;;0.30;;
18194;SDS011;9223;50.988;3.162;2024-03-02T01:28:35;2.25;;;0.60;;
18194;SDS011;9223;50.988;3.162;2024-03-02T01:34:40;0.55;;;0.28;;
18194;SDS011;9223;50.988;3.162;2024-03-02T01:40:44;0.63;;;0.43;;
18194;SDS011;9223;50.988;3.162;2024-03-02T01:46:48;1.20;;;0.73;;
18194;SDS011;9223;50.988;3.162;2024-03-02T01:52:53;1.83;;;0.50;;
18194;SDS011;9223;50.988;3.162;2024-03-02T01:58:57;1.33;;;0.50;;
18194;SDS011;9223;50.988;3.162;2024-03-02T02:05:01;0.43;;;0.40;;
18194;SDS011;9223;50.988;3.162;2024-03-02T02:11:06;0.90;;;0.70;;
18194;SDS011;9223;50.988;3.162;2024-03-02T02:17:09;1.50;;;0.80;;
18194;SDS011;9223;50.988;3.162;2024-03-02T02:23:14;1.55;;;0.40;;
18194;SDS011;9223;50.988;3.162;2024-03-02T02:29:18;1.35;;;0.70;;
18194;SDS011;9223;50.988;3.162;2024-03-02T02:35:21;0.50;;;0.43;;
18194;SDS011;9223;50.988;3.162;2024-03-02T02:41:27;3.28;;;0.70;;
18194;SDS011;9223;50.988;3.162;2024-03-02T02:47:31;2.45;;;1.05;;
18194;SDS011;9223;50.988;3.162;2024-03-02T02:53:36;0.98;;;0.57;;
18194;SDS011;9223;50.988;3.162;2024-03-02T02:59:43;0.70;;;0.40;;
18194;SDS011;9223;50.988;3.162;2024-03-02T03:11:56;2.92;;;1.13;;
18194;SDS011;9223;50.988;3.162;2024-03-02T03:18:01;2.85;;;1.10;;
18194;SDS011;9223;50.988;3.162;2024-03-02T03:24:05;3.45;;;1.45;;
18194;SDS011;9223;50.988;3.162;2024-03-02T03:30:10;3.85;;;1.58;;
18194;SDS011;9223;50.988;3.162;2024-03-02T03:36:15;2.97;;;1.83;;
18194;SDS011;9223;50.988;3.162;2024-03-02T03:42:18;1.15;;;1.00;;
18194;SDS011;9223;50.988;3.162;2024-03-02T03:48:22;2.10;;;1.10;;
18194;SDS011;9223;50.988;3.162;2024-03-02T03:54:27;3.60;;;1.42;;
18194;SDS011;9223;50.988;3.162;2024-03-02T04:00:31;2.38;;;0.70;;
18194;SDS011;9223;50.988;3.162;2024-03-02T04:06:34;1.75;;;0.90;;
18194;SDS011;9223;50.988;3.162;2024-03-02T04:12:39;2.85;;;0.93;;
18194;SDS011;9223;50.988;3.162;2024-03-02T04:18:43;2.85;;;1.33;;
18194;SDS011;9223;50.988;3.162;2024-03-02T04:24:46;0.40;;;0.40;;
18194;SDS011;9223;50.988;3.162;2024-03-02T04:30:51;0.63;;;0.50;;
18194;SDS011;9223;50.988;3.162;2024-03-02T04:36:55;3.10;;;1.00;;
18194;SDS011;9223;50.988;3.162;2024-03-02T04:42:59;3.30;;;0.90;;
18194;SDS011;9223;50.988;3.162;2024-03-02T04:49:03;1.90;;;1.48;;
18194;SDS011;9223;50.988;3.162;2024-03-02T04:55:07;3.88;;;1.30;;
18194;SDS011;9223;50.988;3.162;2024-03-02T05:01:31;2.88;;;1.23;;
18194;SDS011;9223;50.988;3.162;2024-03-02T05:07:36;3.83;;;1.20;;
18194;SDS011;9223;50.988;3.162;2024-03-02T05:13:39;4.70;;;1.40;;
18194;SDS011;9223;50.988;3.162;2024-03-02T05:19:42;3.45;;;1.33;;
18194;SDS011;9223;50.988;3.162;2024-03-02T05:25:47;4.03;;;1.23;;
18194;SDS011;9223;50.988;3.162;2024-03-02T05:31:51;2.38;;;0.98;;
18194;SDS011;9223;50.988;3.162;2024-03-02T05:37:54;3.20;;;1.40;;
18194;SDS011;9223;50.988;3.162;2024-03-02T05:43:59;4.78;;;0.95;;
18194;SDS011;9223;50.988;3.162;2024-03-02T05:50:03;3.97;;;1.25;;
18194;SDS011;9223;50.988;3.162;2024-03-02T05:56:08;1.35;;;0.93;;
18194;SDS011;9223;50.988;3.162;2024-03-02T06:02:14;7.63;;;5.75;;
18194;SDS011;9223;50.988;3.162;2024-03-02T06:08:18;16.25;;;12.35;;
18194;SDS011;9223;50.988;3.162;2024-03-02T06:14:21;5.22;;;3.85;;
18194;SDS011;9223;50.988;3.162;2024-03-02T06:20:26;6.82;;;3.60;;
18194;SDS011;9223;50.988;3.162;2024-03-02T06:26:36;3.65;;;2.40;;
18194;SDS011;9223;50.988;3.162;2024-03-02T06:32:41;4.93;;;1.63;;
18194;SDS011;9223;50.988;3.162;2024-03-02T06:38:46;3.70;;;1.85;;
18194;SDS011;9223;50.988;3.162;2024-03-02T06:44:49;4.45;;;0.90;;
18194;SDS011;9223;50.988;3.162;2024-03-02T06:50:53;3.50;;;1.23;;
18194;SDS011;9223;50.988;3.162;2024-03-02T06:56:58;2.03;;;0.98;;
18194;SDS011;9223;50.988;3.162;2024-03-02T07:03:02;1.55;;;0.70;;
18194;SDS011;9223;50.988;3.162;2024-03-02T07:09:05;2.90;;;0.90;;
18194;SDS011;9223;50.988;3.162;2024-03-02T07:15:13;2.85;;;0.70;;
18194;SDS011;9223;50.988;3.162;2024-03-02T07:21:44;3.05;;;0.98;;
18194;SDS011;9223;50.988;3.162;2024-03-02T07:27:48;2.88;;;1.00;;
18194;SDS011;9223;50.988;3.162;2024-03-02T07:33:53;2.15;;;0.73;;
18194;SDS011;9223;50.988;3.162;2024-03-02T07:39:56;2.53;;;1.08;;
18194;SDS011;9223;50.988;3.162;2024-03-02T07:46:00;4.35;;;1.10;;
18194;SDS011;9223;50.988;3.162;2024-03-02T07:52:06;1.52;;;0.73;;
18194;SDS011;9223;50.988;3.162;2024-03-02T07:58:10;3.22;;;0.93;;
18194;SDS011;9223;50.988;3.162;2024-03-02T08:04:14;5.00;;;0.98;;
18194;SDS011;9223;50.988;3.162;2024-03-02T08:10:19;1.98;;;0.82;;
18194;SDS011;9223;50.988;3.162;2024-03-02T08:16:23;3.88;;;0.90;;
18194;SDS011;9223;50.988;3.162;2024-03-02T08:22:26;2.10;;;0.80;;
18194;SDS011;9223;50.988;3.162;2024-03-02T08:28:31;5.88;;;1.00;;
18194;SDS011;9223;50.988;3.162;2024-03-02T08:34:35;2.95;;;0.98;;
18194;SDS011;9223;50.988;3.162;2024-03-02T08:40:39;2.20;;;0.93;;
18194;SDS011;9223;50.988;3.162;2024-03-02T08:46:43;4.13;;;0.82;;
18194;SDS011;9223;50.988;3.162;2024-03-02T08:52:47;8.65;;;1.10;;
18194;SDS011;9223;50.988;3.162;2024-03-02T08:58:51;6.97;;;1.60;;
18194;SDS011;9223;50.988;3.162;2024-03-02T09:04:55;4.43;;;1.23;;
18194;SDS011;9223;50.988;3.162;2024-03-02T09:10:59;2.25;;;0.90;;
18194;SDS011;9223;50.988;3.162;2024-03-02T09:17:03;3.47;;;0.98;;
18194;SDS011;9223;50.988;3.162;2024-03-02T09:23:08;2.13;;;0.90;;
18194;SDS011;9223;50.988;3.162;2024-03-02T09:29:11;4.70;;;1.05;;
18194;SDS011;9223;50.988;3.162;2024-03-02T09:35:15;3.75;;;1.08;;
18194;SDS011;9223;50.988;3.162;2024-03-02T09:41:20;4.35;;;0.88;;
18194;SDS011;9223;50.988;3.162;2024-03-02T09:47:24;5.70;;;1.30;;
18194;SDS011;9223;50.988;3.162;2024-03-02T09:53:28;4.38;;;1.67;;
18194;SDS011;9223;50.988;3.162;2024-03-02T09:59:35;4.45;;;0.90;;
18194;SDS011;9223;50.988;3.162;2024-03-02T10:05:39;2.88;;;0.90;;
18194;SDS011;9223;50.988;3.162;2024-03-02T10:11:42;2.88;;;1.05;;
18194;SDS011;9223;50.988;3.162;2024-03-02T10:17:47;3.88;;;0.90;;
18194;SDS011;9223;50.988;3.162;2024-03-02T10:23:51;5.70;;;1.30;;
18194;SDS011;9223;50.988;3.162;2024-03-02T10:29:54;5.47;;;1.10;;
18194;SDS011;9223;50.988;3.162;2024-03-02T10:35:59;4.72;;;1.10;;
18194;SDS011;9223;50.988;3.162;2024-03-02T10:42:03;4.57;;;1.20;;
18194;SDS011;9223;50.988;3.162;2024-03-02T10:48:08;3.78;;;1.02;;
18194;SDS011;9223;50.988;3.162;2024-03-02T10:54:13;2.60;;;1.00;;
18194;SDS011;9223;50.988;3.162;2024-03-02T11:00:17;5.88;;;1.30;;
18194;SDS011;9223;50.988;3.162;2024-03-02T11:06:27;4.72;;;1.30;;
18194;SDS011;9223;50.988;3.162;2024-03-02T11:12:36;3.22;;;1.00;;
18194;SDS011;9223;50.988;3.162;2024-03-02T11:18:41;4.47;;;0.93;;
18194;SDS011;9223;50.988;3.162;2024-03-02T11:24:48;3.90;;;0.85;;
18194;SDS011;9223;50.988;3.162;2024-03-02T11:30:54;3.88;;;0.90;;
18194;SDS011;9223;50.988;3.162;2024-03-02T11:36:57;3.15;;;1.13;;
18194;SDS011;9223;50.988;3.162;2024-03-02T11:43:01;5.13;;;1.00;;
18194;SDS011;9223;50.988;3.162;2024-03-02T11:49:07;5.05;;;0.77;;
18194;SDS011;9223;50.988;3.162;2024-03-02T11:55:12;4.25;;;0.90;;
18194;SDS011;9223;50.988;3.162;2024-03-02T12:01:16;2.97;;;0.80;;
18194;SDS011;9223;50.988;3.162;2024-03-02T12:07:21;1.15;;;0.93;;
18194;SDS011;9223;50.988;3.162;2024-03-02T12:13:25;4.35;;;0.80;;
18194;SDS011;9223;50.988;3.162;2024-03-02T12:19:29;4.07;;;1.70;;
18194;SDS011;9223;50.988;3.162;2024-03-02T12:25:34;7.32;;;2.90;;
18194;SDS011;9223;50.988;3.162;2024-03-02T12:31:38;4.47;;;1.23;;
18194;SDS011;9223;50.988;3.162;2024-03-02T12:37:42;5.50;;;1.90;;
18194;SDS011;9223;50.988;3.162;2024-03-02T12:43:47;4.25;;;1.67;;
18194;SDS011;9223;50.988;3.162;2024-03-02T12:49:51;4.30;;;1.30;;
18194;SDS011;9223;50.988;3.162;2024-03-02T12:55:56;4.68;;;1.55;;
18194;SDS011;9223;50.988;3.162;2024-03-02T13:02:01;4.40;;;2.38;;
18194;SDS011;9223;50.988;3.162;2024-03-02T13:08:05;3.05;;;1.15;;
18194;SDS011;9223;50.988;3.162;2024-03-02T13:14:10;3.00;;;1.40;;
18194;SDS011;9223;50.988;3.162;2024-03-02T13:20:15;5.90;;;1.50;;
18194;SDS011;9223;50.988;3.162;2024-03-02T13:26:19;9.23;;;3.25;;
18194;SDS011;9223;50.988;3.162;2024-03-02T13:32:23;5.05;;;2.33;;
18194;SDS011;9223;50.988;3.162;2024-03-02T13:38:28;8.30;;;2.90;;
18194;SDS011;9223;50.988;3.162;2024-03-02T13:44:32;2.40;;;0.98;;
18194;SDS011;9223;50.988;3.162;2024-03-02T13:50:35;3.83;;;0.75;;
18194;SDS011;9223;50.988;3.162;2024-03-02T13:56:40;2.38;;;0.80;;
18194;SDS011;9223;50.988;3.162;2024-03-02T14:02:45;1.85;;;0.73;;
18194;SDS011;9223;50.988;3.162;2024-03-02T14:08:50;1.92;;;0.70;;
18194;SDS011;9223;50.988;3.162;2024-03-02T14:14:56;0.95;;;0.65;;
18194;SDS011;9223;50.988;3.162;2024-03-02T14:20:59;7.15;;;2.97;;
18194;SDS011;9223;50.988;3.162;2024-03-02T14:27:03;5.32;;;2.75;;
18194;SDS011;9223;50.988;3.162;2024-03-02T14:33:27;2.85;;;2.00;;
18194;SDS011;9223;50.988;3.162;2024-03-02T14:39:32;2.90;;;2.42;;
18194;SDS011;9223;50.988;3.162;2024-03-02T14:45:36;3.13;;;2.08;;
18194;SDS011;9223;50.988;3.162;2024-03-02T14:51:41;3.60;;;1.80;;
18194;SDS011;9223;50.988;3.162;2024-03-02T14:57:45;2.20;;;1.83;;
18194;SDS011;9223;50.988;3.162;2024-03-02T15:03:49;1.92;;;1.50;;
18194;SDS011;9223;50.988;3.162;2024-03-02T15:09:54;5.15;;;1.90;;
18194;SDS011;9223;50.988;3.162;2024-03-02T15:15:57;1.17;;;0.90;;
18194;SDS011;9223;50.988;3.162;2024-03-02T15:22:07;3.10;;;1.75;;
18194;SDS011;9223;50.988;3.162;2024-03-02T15:28:12;3.45;;;1.25;;
18194;SDS011;9223;50.988;3.162;2024-03-02T15:34:16;2.97;;;2.17;;
18194;SDS011;9223;50.988;3.162;2024-03-02T15:40:20;1.70;;;1.40;;
18194;SDS011;9223;50.988;3.162;2024-03-02T15:46:24;2.97;;;1.88;;
18194;SDS011;9223;50.988;3.162;2024-03-02T15:52:28;1.63;;;1.05;;
18194;SDS011;9223;50.988;3.162;2024-03-02T15:58:32;3.60;;;0.80;;
18194;SDS011;9223;50.988;3.162;2024-03-02T16:04:38;3.30;;;1.77;;
18194;SDS011;9223;50.988;3.162;2024-03-02T16:10:42;3.30;;;2.50;;
18194;SDS011;9223;50.988;3.162;2024-03-02T16:16:45;2.20;;;1.23;;
18194;SDS011;9223;50.988;3.162;2024-03-02T16:22:50;2.10;;;1.55;;
18194;SDS011;9223;50.988;3.162;2024-03-02T16:28:54;3.15;;;2.05;;
18194;SDS011;9223;50.988;3.162;2024-03-02T16:34:57;2.85;;;2.17;;
18194;SDS011;9223;50.988;3.162;2024-03-02T16:41:02;2.97;;;2.70;;
18194;SDS011;9223;50.988;3.162;2024-03-02T16:47:06;3.33;;;2.80;;
18194;SDS011;9223;50.988;3.162;2024-03-02T16:53:11;5.53;;;2.88;;
18194;SDS011;9223;50.988;3.162;2024-03-02T16:59:18;3.45;;;2.80;;
18194;SDS011;9223;50.988;3.162;2024-03-02T17:05:22;3.38;;;2.33;;
18194;SDS011;9223;50.988;3.162;2024-03-02T17:11:25;4.00;;;2.80;;
18194;SDS011;9223;50.988;3.162;2024-03-02T17:17:31;4.45;;;4.03;;
18194;SDS011;9223;50.988;3.162;2024-03-02T17:23:34;5.38;;;4.05;;
18194;SDS011;9223;50.988;3.162;2024-03-02T17:29:38;3.80;;;2.90;;
18194;SDS011;9223;50.988;3.162;2024-03-02T17:35:43;6.25;;;4.22;;
18194;SDS011;9223;50.988;3.162;2024-03-02T17:41:48;5.13;;;3.97;;
18194;SDS011;9223;50.988;3.162;2024-03-02T17:47:52;9.43;;;7.72;;
18194;SDS011;9223;50.988;3.162;2024-03-02T17:53:57;5.05;;;4.10;;
18194;SDS011;9223;50.988;3.162;2024-03-02T18:00:01;3.20;;;2.90;;
18194;SDS011;9223;50.988;3.162;2024-03-02T18:06:05;4.30;;;3.70;;
18194;SDS011;9223;50.988;3.162;2024-03-02T18:12:11;3.58;;;3.28;;
18194;SDS011;9223;50.988;3.162;2024-03-02T18:18:15;3.72;;;3.08;;
18194;SDS011;9223;50.988;3.162;2024-03-02T18:24:19;2.17;;;1.98;;
18194;SDS011;9223;50.988;3.162;2024-03-02T18:30:26;2.35;;;2.15;;
18194;SDS011;9223;50.988;3.162;2024-03-02T18:36:30;3.50;;;1.90;;
18194;SDS011;9223;50.988;3.162;2024-03-02T18:42:33;3.08;;;2.47;;
18194;SDS011;9223;50.988;3.162;2024-03-02T18:48:38;2.67;;;2.22;;
18194;SDS011;9223;50.988;3.162;2024-03-02T18:54:43;3.10;;;2.05;;
18194;SDS011;9223;50.988;3.162;2024-03-02T19:00:47;3.35;;;2.22;;
18194;SDS011;9223;50.988;3.162;2024-03-02T19:06:52;5.20;;;3.60;;
18194;SDS011;9223;50.988;3.162;2024-03-02T19:12:56;5.32;;;3.90;;
18194;SDS011;9223;50.988;3.162;2024-03-02T19:18:59;7.07;;;4.90;;
18194;SDS011;9223;50.988;3.162;2024-03-02T19:25:06;6.70;;;4.68;;
18194;SDS011;9223;50.988;3.162;2024-03-02T19:31:13;7.32;;;5.03;;
18194;SDS011;9223;50.988;3.162;2024-03-02T19:37:16;7.78;;;5.90;;
18194;SDS011;9223;50.988;3.162;2024-03-02T19:43:21;10.30;;;8.10;;
18194;SDS011;9223;50.988;3.162;2024-03-02T19:49:25;8.27;;;5.82;;
18194;SDS011;9223;50.988;3.162;2024-03-02T19:55:28;6.78;;;5.43;;
18194;SDS011;9223;50.988;3.162;2024-03-02T20:01:33;8.90;;;6.88;;
18194;SDS011;9223;50.988;3.162;2024-03-02T20:07:37;11.30;;;7.70;;
18194;SDS011;9223;50.988;3.162;2024-03-02T20:13:41;6.97;;;6.10;;
18194;SDS011;9223;50.988;3.162;2024-03-02T20:19:46;6.55;;;5.60;;
18194;SDS011;9223;50.988;3.162;2024-03-02T20:25:50;6.35;;;5.55;;
18194;SDS011;9223;50.988;3.162;2024-03-02T20:31:55;8.10;;;6.95;;
18194;SDS011;9223;50.988;3.162;2024-03-02T20:38:01;6.53;;;5.68;;
18194;SDS011;9223;50.988;3.162;2024-03-02T20:44:05;6.25;;;4.88;;
18194;SDS011;9223;50.988;3.162;2024-03-02T20:50:09;5.00;;;4.30;;
18194;SDS011;9223;50.988;3.162;2024-03-02T20:56:13;3.20;;;2.78;;
18194;SDS011;9223;50.988;3.162;2024-03-02T21:02:17;2.58;;;2.38;;
18194;SDS011;9223;50.988;3.162;2024-03-02T21:08:20;2.17;;;1.92;;
18194;SDS011;9223;50.988;3.162;2024-03-02T21:14:26;2.40;;;1.95;;
18194;SDS011;9223;50.988;3.162;2024-03-02T21:20:29;3.03;;;2.15;;
18194;SDS011;9223;50.988;3.162;2024-03-02T21:26:36;2.65;;;2.30;;
18194;SDS011;9223;50.988;3.162;2024-03-02T21:32:41;3.40;;;2.72;;
18194;SDS011;9223;50.988;3.162;2024-03-02T21:38:45;3.00;;;2.40;;
18194;SDS011;9223;50.988;3.162;2024-03-02T21:44:48;2.30;;;2.05;;
18194;SDS011;9223;50.988;3.162;2024-03-02T21:50:53;2.28;;;1.98;;
18194;SDS011;9223;50.988;3.162;2024-03-02T21:56:57;3.15;;;1.60;;
18194;SDS011;9223;50.988;3.162;2024-03-02T22:03:04;2.00;;;1.80;;
18194;SDS011;9223;50.988;3.162;2024-03-02T22:09:09;2.65;;;2.13;;
18194;SDS011;9223;50.988;3.162;2024-03-02T22:15:14;2.25;;;2.00;;
18194;SDS011;9223;50.988;3.162;2024-03-02T22:21:17;2.40;;;1.33;;
18194;SDS011;9223;50.988;3.162;2024-03-02T22:27:23;1.40;;;1.10;;
18194;SDS011;9223;50.988;3.162;2024-03-02T22:33:27;1.92;;;1.30;;
18194;SDS011;9223;50.988;3.162;2024-03-02T22:39:30;1.15;;;0.90;;
18194;SDS011;9223;50.988;3.162;2024-03-02T22:45:35;1.05;;;0.80;;
18194;SDS011;9223;50.988;3.162;2024-03-02T22:51:39;1.35;;;0.90;;
18194;SDS011;9223;50.988;3.162;2024-03-02T22:57:42;1.40;;;1.30;;
18194;SDS011;9223;50.988;3.162;2024-03-02T23:03:47;1.17;;;0.88;;
18194;SDS011;9223;50.988;3.162;2024-03-02T23:09:51;1.17;;;0.80;;
18194;SDS011;9223;50.988;3.162;2024-03-02T23:15:55;1.05;;;0.60;;
18194;SDS011;9223;50.988;3.162;2024-03-02T23:22:00;0.95;;;0.50;;
18194;SDS011;9223;50.988;3.162;2024-03-02T23:28:05;0.60;;;0.60;;
18194;SDS011;9223;50.988;3.162;2024-03-02T23:34:09;1.77;;;0.65;;
18194;SDS011;9223;50.988;3.162;2024-03-02T23:40:14;0.88;;;0.70;;
18194;SDS011;9223;50.988;3.162;2024-03-02T23:46:46;1.88;;;0.60;;
18194;SDS011;9223;50.988;3.162;2024-03-02T23:52:49;0.82;;;0.82;;
18194;SDS011;9223;50.988;3.162;2024-03-02T23:58:54;0.80;;;0.80;;
